Time;durP1;ratioP1;P1;durP2;ratioP2;P2;SDS_P1;SDS_P2;PMS_P1;PMS_P2;Temp;Humidity;BMP_temperature;BMP_pressure;BME280_temperature;BME280_humidity;BME280_pressure;Samples;Min_cycle;Max_cycle;Signal;HPM_P1;HPM_P2
2022/05/18 00:00:14;;;;;;;;;;;12.00;88.40;;;;;;5110497;28;19955;-76
2022/05/18 00:02:40;;;;;;;;;;;12.00;88.50;;;;;;5110686;28;20273;-75
2022/05/18 00:05:06;;;;;;;;;;;12.00;88.40;;;;;;5110558;28;19998;-73
2022/05/18 00:07:32;;;;;;;;;;;12.00;88.50;;;;;;5110959;28;20006;-72
2022/05/18 00:09:57;;;;;;;;;;;12.00;88.60;;;;;;5110623;28;19908;-73
2022/05/18 00:12:23;;;;;;;;;;;11.90;88.40;;;;;;5091956;28;19915;-73
2022/05/18 00:14:49;;;;;;;;;;;11.90;88.50;;;;;;5110924;28;20353;-72
2022/05/18 00:17:15;;;;;;;;;;;11.90;88.60;;;;;;5110553;28;19939;-72
2022/05/18 00:19:40;;;;;;;;;;;11.90;88.70;;;;;;5109893;28;19922;-73
2022/05/18 00:22:06;;;;;;;;;;;11.90;88.80;;;;;;5090666;28;19912;-75
2022/05/18 00:24:31;;;;;;;;;;;11.90;88.70;;;;;;5090627;28;19912;-74
2022/05/18 00:26:57;;;;;;;;;;;11.90;89.00;;;;;;5110489;28;19907;-72
2022/05/18 00:29:23;;;;;;;;;;;11.90;89.30;;;;;;5113272;28;19920;-71
2022/05/18 00:31:48;;;;;;;;;;;11.90;89.30;;;;;;5095673;28;19914;-73
2022/05/18 00:34:16;;;;;;;;;;;11.90;89.40;;;;;;5113997;28;19926;-73
2022/05/18 00:36:42;;;;;;;;;;;11.90;89.40;;;;;;5113611;28;19907;-72
2022/05/18 00:39:07;;;;;;;;;;;11.90;89.60;;;;;;5113407;28;20313;-76
2022/05/18 00:41:33;;;;;;;;;;;11.90;89.70;;;;;;5113625;28;19933;-73
2022/05/18 00:43:58;;;;;;;;;;;12.00;89.80;;;;;;5078817;28;19916;-74
2022/05/18 00:46:24;;;;;;;;;;;11.90;89.70;;;;;;5114337;28;19961;-73
2022/05/18 00:48:51;;;;;;;;;;;12.00;89.90;;;;;;5115348;28;20014;-72
2022/05/18 00:51:20;;;;;;;;;;;12.00;89.90;;;;;;5114967;28;19908;-73
2022/05/18 00:54:12;;;;;;;;;;;12.00;90.00;;;;;;5115056;28;19911;-72
2022/05/18 00:56:44;;;;;;;;;;;12.00;90.00;;;;;;5112701;28;19912;-74
2022/05/18 00:59:19;;;;;;;;;;;11.90;90.00;;;;;;5096715;28;20372;-74
2022/05/18 01:01:45;;;;;;;;;;;12.00;90.00;;;;;;5115080;28;19910;-74
2022/05/18 01:04:13;;;;;;;;;;;11.90;90.00;;;;;;5115103;28;20028;-73
2022/05/18 01:06:45;;;;;;;;;;;11.90;90.00;;;;;;5113974;28;19912;-74
2022/05/18 01:09:17;;;;;;;;;;;11.90;90.00;;;;;;5114977;28;19915;-72
2022/05/18 01:11:43;;;;;;;;;;;11.90;90.10;;;;;;5114181;28;20010;-73
2022/05/18 01:14:20;;;;;;;;;;;11.90;90.10;;;;;;5114109;28;19981;-74
2022/05/18 01:16:46;;;;;;;;;;;11.90;90.10;;;;;;5113696;28;19908;-73
2022/05/18 01:19:32;;;;;;;;;;;11.90;90.20;;;;;;5113719;28;19915;-73
2022/05/18 01:22:10;;;;;;;;;;;11.90;90.20;;;;;;5106241;28;19981;-73
2022/05/18 01:24:58;;;;;;;;;;;11.90;90.20;;;;;;5113857;28;19912;-73
2022/05/18 01:27:23;;;;;;;;;;;11.90;90.20;;;;;;5113647;28;19911;-72
2022/05/18 01:29:50;;;;;;;;;;;11.80;90.20;;;;;;5078284;28;20421;-75
2022/05/18 01:32:16;;;;;;;;;;;11.80;90.30;;;;;;5113658;28;19969;-76
2022/05/18 01:34:45;;;;;;;;;;;11.80;90.20;;;;;;5095297;28;19916;-72
2022/05/18 01:37:11;;;;;;;;;;;11.90;90.30;;;;;;5113607;28;19969;-74
2022/05/18 01:39:51;;;;;;;;;;;11.90;90.30;;;;;;5094086;28;19912;-75
2022/05/18 01:42:17;;;;;;;;;;;11.90;90.30;;;;;;5095542;28;19908;-73
2022/05/18 01:44:42;;;;;;;;;;;11.90;90.30;;;;;;5095876;28;19907;-72
2022/05/18 01:47:08;;;;;;;;;;;11.80;90.30;;;;;;5113652;28;19965;-74
2022/05/18 01:49:34;;;;;;;;;;;11.80;90.30;;;;;;5113800;28;19912;-75
2022/05/18 01:52:00;;;;;;;;;;;11.80;90.30;;;;;;5113991;28;19932;-73
2022/05/18 01:54:26;;;;;;;;;;;11.80;90.30;;;;;;5077102;28;19916;-73
2022/05/18 01:56:51;;;;;;;;;;;11.80;90.30;;;;;;5094485;28;20095;-75
2022/05/18 01:59:17;;;;;;;;;;;11.80;90.30;;;;;;5113350;28;20388;-75
2022/05/18 02:01:44;;;;;;;;;;;11.80;90.30;;;;;;5095295;28;20059;-72
2022/05/18 02:04:10;;;;;;;;;;;11.80;90.30;;;;;;5094481;28;19911;-73
2022/05/18 02:06:36;;;;;;;;;;;11.80;90.20;;;;;;5094494;28;20168;-73
2022/05/18 02:09:04;;;;;;;;;;;11.80;90.30;;;;;;5094817;28;19915;-75
2022/05/18 02:11:31;;;;;;;;;;;11.80;90.30;;;;;;5094225;28;19939;-71
2022/05/18 02:13:56;;;;;;;;;;;11.80;90.30;;;;;;5093765;28;19954;-75
2022/05/18 02:16:22;;;;;;;;;;;11.80;90.30;;;;;;5112927;28;19919;-73
2022/05/18 02:18:47;;;;;;;;;;;11.70;90.30;;;;;;5094902;28;19919;-75
2022/05/18 02:21:13;;;;;;;;;;;11.80;90.40;;;;;;5094880;28;19912;-74
2022/05/18 02:23:40;;;;;;;;;;;11.70;90.40;;;;;;5113148;28;19916;-73
2022/05/18 02:26:06;;;;;;;;;;;11.80;90.40;;;;;;5094955;28;19908;-75
2022/05/18 02:28:32;;;;;;;;;;;11.70;90.30;;;;;;5113466;28;19907;-74
2022/05/18 02:30:58;;;;;;;;;;;11.70;90.30;;;;;;5113607;28;20002;-77
2022/05/18 02:33:23;;;;;;;;;;;11.70;90.40;;;;;;5094561;28;19922;-76
2022/05/18 02:35:49;;;;;;;;;;;11.70;90.30;;;;;;5077983;28;19949;-73
2022/05/18 02:38:15;;;;;;;;;;;11.80;90.40;;;;;;5112207;28;20002;-72
2022/05/18 02:40:40;;;;;;;;;;;11.70;90.40;;;;;;5112310;28;19911;-73
2022/05/18 02:43:06;;;;;;;;;;;11.70;90.30;;;;;;5112262;28;19914;-73
2022/05/18 02:45:31;;;;;;;;;;;11.70;90.30;;;;;;5112532;28;20087;-71
2022/05/18 02:47:57;;;;;;;;;;;11.70;90.30;;;;;;5112089;28;19959;-73
2022/05/18 02:50:23;;;;;;;;;;;11.70;90.30;;;;;;5112060;28;20026;-74
2022/05/18 02:52:48;;;;;;;;;;;11.70;90.30;;;;;;5094316;28;19922;-75
2022/05/18 02:58:00;;;;;;;;;;;11.70;90.30;;;;;;5112905;28;19920;-72
2022/05/18 03:00:25;;;;;;;;;;;11.60;90.30;;;;;;5113211;28;19911;-74
2022/05/18 03:02:51;;;;;;;;;;;11.70;90.40;;;;;;5112586;28;19919;-73
2022/05/18 03:05:17;;;;;;;;;;;11.70;90.40;;;;;;5112559;28;20262;-72
2022/05/18 03:07:43;;;;;;;;;;;11.60;90.40;;;;;;5111883;28;19998;-72
2022/05/18 03:10:09;;;;;;;;;;;11.60;90.40;;;;;;5094190;28;20316;-73
2022/05/18 03:12:34;;;;;;;;;;;11.60;90.50;;;;;;5111540;28;19915;-74
2022/05/18 03:15:00;;;;;;;;;;;11.60;90.50;;;;;;5111293;28;19943;-75
2022/05/18 03:17:25;;;;;;;;;;;11.60;90.60;;;;;;5076469;28;19978;-74
2022/05/18 03:19:51;;;;;;;;;;;11.60;90.60;;;;;;5112223;28;20209;-73
2022/05/18 03:25:02;;;;;;;;;;;11.60;90.60;;;;;;5111773;28;19919;-73
2022/05/18 03:27:28;;;;;;;;;;;11.50;90.60;;;;;;5110230;28;19912;-75
2022/05/18 03:29:54;;;;;;;;;;;11.60;90.80;;;;;;5110117;28;19999;-76
2022/05/18 03:32:22;;;;;;;;;;;11.50;90.80;;;;;;5091579;28;19931;-73
2022/05/18 03:34:49;;;;;;;;;;;11.50;90.80;;;;;;5074996;28;19915;-71
2022/05/18 03:37:16;;;;;;;;;;;11.50;90.80;;;;;;5091999;28;19912;-73
2022/05/18 03:39:42;;;;;;;;;;;11.50;90.80;;;;;;5092045;28;19908;-74
2022/05/18 03:42:07;;;;;;;;;;;11.50;90.90;;;;;;5110464;28;19919;-72
2022/05/18 03:44:33;;;;;;;;;;;11.50;90.90;;;;;;5110835;28;19908;-74
2022/05/18 03:46:59;;;;;;;;;;;11.50;90.90;;;;;;5110782;28;19935;-74
2022/05/18 03:49:24;;;;;;;;;;;11.50;91.00;;;;;;5077198;28;20016;-72
2022/05/18 03:51:50;;;;;;;;;;;11.50;91.10;;;;;;5092413;28;19930;-73
2022/05/18 03:54:16;;;;;;;;;;;11.50;91.10;;;;;;5111684;28;19941;-74
2022/05/18 03:56:41;;;;;;;;;;;11.50;91.20;;;;;;5111598;28;20385;-72
2022/05/18 03:59:07;;;;;;;;;;;11.50;91.30;;;;;;5110777;28;19951;-74
2022/05/18 04:01:32;;;;;;;;;;;11.50;91.30;;;;;;5110277;28;19916;-73
2022/05/18 04:03:58;;;;;;;;;;;11.50;91.40;;;;;;5110472;28;19908;-75
2022/05/18 04:06:23;;;;;;;;;;;11.50;91.40;;;;;;5092767;28;20266;-75
2022/05/18 04:08:49;;;;;;;;;;;11.50;91.50;;;;;;5111161;28;20262;-74
2022/05/18 04:11:15;;;;;;;;;;;11.60;91.60;;;;;;5075717;28;19915;-74
2022/05/18 04:13:41;;;;;;;;;;;11.60;91.50;;;;;;5092268;28;19916;-75
2022/05/18 04:16:08;;;;;;;;;;;11.60;91.60;;;;;;5092137;28;19922;-76
2022/05/18 04:18:34;;;;;;;;;;;11.60;91.60;;;;;;5111142;28;20401;-73
2022/05/18 04:21:00;;;;;;;;;;;11.50;91.60;;;;;;5111105;28;19915;-73
2022/05/18 04:23:26;;;;;;;;;;;11.60;91.60;;;;;;5111664;28;20003;-75
2022/05/18 04:25:52;;;;;;;;;;;11.60;91.70;;;;;;5111604;28;19912;-76
2022/05/18 04:28:18;;;;;;;;;;;11.60;91.70;;;;;;5093292;28;19915;-73
2022/05/18 04:30:45;;;;;;;;;;;11.60;91.70;;;;;;5111041;28;19912;-74
2022/05/18 04:33:11;;;;;;;;;;;11.60;91.60;;;;;;5110870;28;19912;-73
2022/05/18 04:35:36;;;;;;;;;;;11.60;91.70;;;;;;5110807;28;19915;-71
2022/05/18 04:38:02;;;;;;;;;;;11.60;91.70;;;;;;5110909;28;19916;-74
2022/05/18 04:40:27;;;;;;;;;;;11.60;91.60;;;;;;5110814;28;20357;-72
2022/05/18 04:42:53;;;;;;;;;;;11.70;91.60;;;;;;5092072;28;20002;-73
2022/05/18 04:45:19;;;;;;;;;;;11.70;91.60;;;;;;5092674;28;19916;-72
2022/05/18 04:47:45;;;;;;;;;;;11.70;91.60;;;;;;5108674;28;19951;-75
2022/05/18 04:50:11;;;;;;;;;;;11.70;91.60;;;;;;5111331;28;19942;-73
2022/05/18 04:52:37;;;;;;;;;;;11.70;91.60;;;;;;5092733;28;20393;-72
2022/05/18 04:55:03;;;;;;;;;;;11.70;91.50;;;;;;5092916;28;19919;-73
2022/05/18 04:57:29;;;;;;;;;;;11.70;91.50;;;;;;5112348;28;19914;-73
2022/05/18 04:59:54;;;;;;;;;;;11.80;91.60;;;;;;5091543;28;20046;-74
2022/05/18 05:02:20;;;;;;;;;;;11.80;91.60;;;;;;5111549;28;19911;-73
2022/05/18 05:04:45;;;;;;;;;;;11.80;91.60;;;;;;5110929;28;20016;-73
2022/05/18 05:07:11;;;;;;;;;;;11.80;91.50;;;;;;5093148;28;19922;-74
2022/05/18 05:09:37;;;;;;;;;;;11.80;91.50;;;;;;5092297;28;19916;-72
2022/05/18 05:12:03;;;;;;;;;;;11.80;91.60;;;;;;5110483;28;20403;-73
2022/05/18 05:14:29;;;;;;;;;;;11.90;91.60;;;;;;5114074;28;19922;-73
2022/05/18 05:16:55;;;;;;;;;;;11.90;91.60;;;;;;5114512;28;20365;-72
2022/05/18 05:19:21;;;;;;;;;;;11.90;91.60;;;;;;5096549;28;19912;-73
2022/05/18 05:21:46;;;;;;;;;;;12.00;91.60;;;;;;5096025;28;19948;-73
2022/05/18 05:24:13;;;;;;;;;;;12.00;91.60;;;;;;5113733;28;20026;-73
2022/05/18 05:26:39;;;;;;;;;;;12.10;91.60;;;;;;5114176;28;19922;-77
2022/05/18 05:29:05;;;;;;;;;;;12.10;91.50;;;;;;5095642;28;19942;-71
2022/05/18 05:31:31;;;;;;;;;;;12.10;91.50;;;;;;5095922;28;19954;-72
2022/05/18 05:33:57;;;;;;;;;;;12.20;91.50;;;;;;5114438;28;19922;-75
2022/05/18 05:36:23;;;;;;;;;;;12.30;91.60;;;;;;5095607;28;19908;-75
2022/05/18 05:38:49;;;;;;;;;;;12.30;91.50;;;;;;5114564;28;19919;-73
2022/05/18 05:41:15;;;;;;;;;;;12.40;91.50;;;;;;5113994;28;20395;-74
2022/05/18 05:43:41;;;;;;;;;;;12.50;91.40;;;;;;5095642;28;19916;-73
2022/05/18 05:46:09;;;;;;;;;;;12.60;91.40;;;;;;5115363;28;19912;-72
2022/05/18 05:48:35;;;;;;;;;;;12.70;91.40;;;;;;5113826;28;19924;-76
2022/05/18 05:51:01;;;;;;;;;;;12.80;91.30;;;;;;5112817;28;20276;-75
2022/05/18 05:53:27;;;;;;;;;;;12.90;91.20;;;;;;5112929;28;19918;-72
2022/05/18 05:55:53;;;;;;;;;;;13.10;91.20;;;;;;5113334;28;19980;-73
2022/05/18 05:58:20;;;;;;;;;;;13.20;91.00;;;;;;5113170;28;20330;-75
2022/05/18 06:00:45;;;;;;;;;;;13.30;91.00;;;;;;5112962;28;19908;-73
2022/05/18 06:03:13;;;;;;;;;;;13.60;91.10;;;;;;5113698;28;20316;-76
2022/05/18 06:05:38;;;;;;;;;;;14.50;90.90;;;;;;5113821;28;19918;-73
2022/05/18 06:08:04;;;;;;;;;;;15.70;90.10;;;;;;5113385;28;20467;-74
2022/05/18 06:10:30;;;;;;;;;;;16.90;87.60;;;;;;5111513;28;19908;-74
2022/05/18 06:12:55;;;;;;;;;;;17.90;85.40;;;;;;5110966;28;20018;-65
2022/05/18 06:15:21;;;;;;;;;;;18.70;83.50;;;;;;5110873;28;19998;-75
2022/05/18 06:17:46;;;;;;;;;;;18.70;80.70;;;;;;5111521;28;20365;-74
2022/05/18 06:20:12;;;;;;;;;;;18.00;80.90;;;;;;5093562;28;19916;-75
2022/05/18 06:22:37;;;;;;;;;;;17.70;83.30;;;;;;5110988;28;19907;-72
2022/05/18 06:25:03;;;;;;;;;;;18.20;83.20;;;;;;5110754;28;19914;-72
2022/05/18 06:27:29;;;;;;;;;;;19.00;81.70;;;;;;5111149;28;20014;-74
2022/05/18 06:29:54;;;;;;;;;;;19.90;81.10;;;;;;5076060;28;19911;-72
2022/05/18 06:32:20;;;;;;;;;;;20.30;79.20;;;;;;5093168;28;19962;-74
2022/05/18 06:34:45;;;;;;;;;;;20.40;79.00;;;;;;5091918;28;19961;-73
2022/05/18 06:37:12;;;;;;;;;;;20.50;78.10;;;;;;5110461;28;20007;-75
2022/05/18 06:39:37;;;;;;;;;;;20.40;77.30;;;;;;5111702;28;20323;-72
2022/05/18 06:42:03;;;;;;;;;;;20.30;77.70;;;;;;5110664;28;19947;-73
2022/05/18 06:44:29;;;;;;;;;;;19.90;77.70;;;;;;5093105;28;19911;-72
2022/05/18 06:46:58;;;;;;;;;;;19.40;77.10;;;;;;5093209;28;19959;-75
2022/05/18 06:49:23;;;;;;;;;;;18.80;77.40;;;;;;5111641;28;19929;-73
2022/05/18 06:51:49;;;;;;;;;;;18.50;78.40;;;;;;5093474;28;19916;-70
2022/05/18 06:54:15;;;;;;;;;;;18.10;78.60;;;;;;5112002;28;19916;-74
2022/05/18 06:56:41;;;;;;;;;;;17.80;79.10;;;;;;5112859;28;20095;-73
2022/05/18 06:59:07;;;;;;;;;;;17.50;79.90;;;;;;5112652;28;19914;-76
2022/05/18 07:01:32;;;;;;;;;;;17.40;80.70;;;;;;5112140;28;20415;-75
2022/05/18 07:03:58;;;;;;;;;;;17.40;81.20;;;;;;5111924;28;20409;-73
2022/05/18 07:06:25;;;;;;;;;;;17.50;81.30;;;;;;5094847;28;19973;-76
2022/05/18 07:08:51;;;;;;;;;;;17.80;81.90;;;;;;5111926;28;19908;-72
2022/05/18 07:11:18;;;;;;;;;;;18.90;83.10;;;;;;5113082;28;19950;-75
2022/05/18 07:13:43;;;;;;;;;;;20.30;81.30;;;;;;5076321;28;19927;-75
2022/05/18 07:16:09;;;;;;;;;;;21.60;80.10;;;;;;5112473;28;19912;-72
2022/05/18 07:18:35;;;;;;;;;;;22.50;77.20;;;;;;5111726;28;19912;-75
2022/05/18 07:21:02;;;;;;;;;;;22.50;75.80;;;;;;5111920;28;19919;-73
2022/05/18 07:23:28;;;;;;;;;;;22.30;76.00;;;;;;5111875;28;19922;-74
2022/05/18 07:25:54;;;;;;;;;;;22.50;76.30;;;;;;5094411;28;19912;-74
2022/05/18 07:28:20;;;;;;;;;;;22.50;75.50;;;;;;5112321;28;19912;-74
2022/05/18 07:30:46;;;;;;;;;;;22.40;75.50;;;;;;5111687;28;19922;-72
2022/05/18 07:33:12;;;;;;;;;;;22.20;74.80;;;;;;5112212;28;19911;-74
2022/05/18 07:35:37;;;;;;;;;;;21.70;74.90;;;;;;5113089;28;19915;-75
2022/05/18 07:38:03;;;;;;;;;;;21.20;75.00;;;;;;5091912;28;20541;-75
2022/05/18 07:40:29;;;;;;;;;;;20.80;75.20;;;;;;5094387;28;20373;-73
2022/05/18 07:42:56;;;;;;;;;;;20.70;75.90;;;;;;5110304;28;19908;-76
2022/05/18 07:45:23;;;;;;;;;;;20.50;75.60;;;;;;5093675;28;20289;-76
2022/05/18 07:47:49;;;;;;;;;;;20.20;75.90;;;;;;5089664;28;19928;-75
2022/05/18 07:50:16;;;;;;;;;;;20.10;76.50;;;;;;5093282;28;19918;-75
2022/05/18 07:52:43;;;;;;;;;;;20.20;76.90;;;;;;5090463;28;19920;-74
2022/05/18 07:55:08;;;;;;;;;;;20.80;77.40;;;;;;5091891;28;19912;-74
2022/05/18 07:57:34;;;;;;;;;;;21.60;77.60;;;;;;5091966;28;19918;-77
2022/05/18 07:59:59;;;;;;;;;;;22.20;77.70;;;;;;5090767;28;20334;-73
2022/05/18 08:02:26;;;;;;;;;;;22.40;75.60;;;;;;5091226;28;19981;-74
2022/05/18 08:04:52;;;;;;;;;;;22.20;74.40;;;;;;5089652;28;20382;-73
2022/05/18 08:07:17;;;;;;;;;;;21.80;74.30;;;;;;5082468;28;19951;-74
2022/05/18 08:15:12;;;;;;;;;;;21.90;75.40;;;;;;5078176;28;19921;-74
2022/05/18 08:17:40;;;;;;;;;;;21.40;74.80;;;;;;5078683;28;19912;-73
2022/05/18 08:20:07;;;;;;;;;;;21.40;75.20;;;;;;5080429;28;19972;-75
2022/05/18 08:22:32;;;;;;;;;;;22.00;75.80;;;;;;5080970;28;19913;-73
2022/05/18 08:24:58;;;;;;;;;;;23.20;76.20;;;;;;5082647;28;19922;-73
2022/05/18 08:27:23;;;;;;;;;;;24.20;74.00;;;;;;5080299;28;20401;-72
2022/05/18 08:29:49;;;;;;;;;;;24.80;72.70;;;;;;5079408;28;20011;-76
2022/05/18 08:32:15;;;;;;;;;;;25.20;70.40;;;;;;5076967;28;19920;-75
2022/05/18 08:34:40;;;;;;;;;;;24.60;68.10;;;;;;5079062;28;19916;-75
2022/05/18 08:37:06;;;;;;;;;;;23.70;67.70;;;;;;5078934;28;20416;-76
2022/05/18 08:39:31;;;;;;;;;;;22.80;68.60;;;;;;5074568;28;19928;-74
2022/05/18 08:41:58;;;;;;;;;;;22.10;68.10;;;;;;5089534;28;19934;-76
2022/05/18 08:44:32;;;;;;;;;;;21.60;69.30;;;;;;5088143;28;19909;-76
2022/05/18 08:47:05;;;;;;;;;;;21.30;70.10;;;;;;5089106;28;19908;-74
2022/05/18 08:49:33;;;;;;;;;;;21.10;70.70;;;;;;5093479;28;19912;-77
2022/05/18 08:52:14;;;;;;;;;;;21.00;70.90;;;;;;5114080;28;20270;-74
2022/05/18 08:54:42;;;;;;;;;;;21.40;72.20;;;;;;5103874;28;19920;-75
2022/05/18 08:57:19;;;;;;;;;;;22.60;72.50;;;;;;5102474;28;19994;-76
2022/05/18 08:59:46;;;;;;;;;;;23.30;70.10;;;;;;5102388;28;19908;-75
2022/05/18 09:02:16;;;;;;;;;;;23.50;70.50;;;;;;5103169;28;19911;-76
2022/05/18 09:04:52;;;;;;;;;;;23.70;70.10;;;;;;5106329;28;19916;-74
2022/05/18 09:07:21;;;;;;;;;;;23.30;69.70;;;;;;5105530;28;19908;-75
2022/05/18 09:10:12;;;;;;;;;;;23.10;70.00;;;;;;5085435;28;19908;-74
2022/05/18 09:12:43;;;;;;;;;;;23.70;70.70;;;;;;5108401;28;20018;-75
2022/05/18 09:15:10;;;;;;;;;;;24.40;69.40;;;;;;5088320;28;19940;-74
2022/05/18 09:17:40;;;;;;;;;;;24.20;65.90;;;;;;5099769;28;19920;-64
2022/05/18 09:20:06;;;;;;;;;;;24.40;66.00;;;;;;5100146;28;19912;-68
2022/05/18 09:22:43;;;;;;;;;;;24.60;65.00;;;;;;5100656;28;19912;-69
2022/05/18 09:25:08;;;;;;;;;;;24.40;63.60;;;;;;5100202;28;20369;-68
2022/05/18 09:27:37;;;;;;;;;;;24.00;63.00;;;;;;5103531;28;19915;-77
2022/05/18 09:30:22;;;;;;;;;;;23.80;64.10;;;;;;5106209;28;19944;-74
2022/05/18 09:32:48;;;;;;;;;;;23.80;64.10;;;;;;5107113;28;19916;-75
2022/05/18 09:35:13;;;;;;;;;;;24.40;63.40;;;;;;5106000;28;19912;-77
2022/05/18 09:37:40;;;;;;;;;;;25.10;63.20;;;;;;5108655;28;19962;-74
2022/05/18 09:40:14;;;;;;;;;;;26.00;64.20;;;;;;5100516;28;19912;-74
2022/05/18 09:42:49;;;;;;;;;;;26.60;64.80;;;;;;5101843;28;20006;-75
2022/05/18 09:45:16;;;;;;;;;;;26.70;62.20;;;;;;5105070;28;19908;-76
2022/05/18 09:47:47;;;;;;;;;;;26.80;61.50;;;;;;5085490;28;20007;-76
2022/05/18 09:50:13;;;;;;;;;;;26.50;61.90;;;;;;5089837;28;19915;-76
2022/05/18 09:52:40;;;;;;;;;;;26.40;62.70;;;;;;5097796;28;20003;-76
2022/05/18 09:55:08;;;;;;;;;;;27.00;62.40;;;;;;5092550;28;19999;-76
2022/05/18 09:57:52;;;;;;;;;;;27.60;62.30;;;;;;5079506;28;19911;-77
2022/05/18 10:00:20;;;;;;;;;;;28.30;62.30;;;;;;5101450;28;19940;-74
2022/05/18 10:08:23;;;;;;;;;;;28.20;59.60;;;;;;5097641;28;19962;-76
2022/05/18 10:11:04;;;;;;;;;;;28.30;60.50;;;;;;5099012;28;19955;-75
2022/05/18 10:13:32;;;;;;;;;;;28.30;60.60;;;;;;5085085;28;20261;-74
2022/05/18 10:16:02;;;;;;;;;;;28.50;58.70;;;;;;5102121;28;20023;-72
2022/05/18 10:18:28;;;;;;;;;;;28.20;58.70;;;;;;5099487;28;20281;-73
2022/05/18 10:21:09;;;;;;;;;;;28.00;57.90;;;;;;5099494;28;19920;-72
2022/05/18 10:23:45;;;;;;;;;;;27.60;57.90;;;;;;5099299;28;19916;-73
2022/05/18 10:26:20;;;;;;;;;;;27.20;56.70;;;;;;5101887;28;19917;-73
2022/05/18 10:28:52;;;;;;;;;;;26.60;55.20;;;;;;5099248;28;19986;-73
2022/05/18 10:31:46;;;;;;;;;;;26.00;55.50;;;;;;5100834;28;19908;-72
2022/05/18 10:34:14;;;;;;;;;;;25.50;56.30;;;;;;5063517;28;19923;-72
2022/05/18 10:36:48;;;;;;;;;;;25.20;56.50;;;;;;5099270;28;19908;-75
2022/05/18 10:39:27;;;;;;;;;;;24.70;55.50;;;;;;5097993;28;19927;-74
2022/05/18 10:41:53;;;;;;;;;;;24.20;56.00;;;;;;5099191;28;20325;-72
2022/05/18 10:44:21;;;;;;;;;;;23.90;56.30;;;;;;5098323;28;20377;-72
2022/05/18 10:46:48;;;;;;;;;;;23.90;56.10;;;;;;5101424;28;19912;-76
2022/05/18 10:49:19;;;;;;;;;;;23.80;55.80;;;;;;5101199;28;19959;-74
2022/05/18 10:51:54;;;;;;;;;;;23.80;55.80;;;;;;5101397;28;20380;-75
2022/05/18 10:54:27;;;;;;;;;;;23.60;55.70;;;;;;5097826;28;20298;-74
2022/05/18 10:56:55;;;;;;;;;;;23.30;56.30;;;;;;5097077;28;19965;-73
2022/05/18 10:59:28;;;;;;;;;;;23.30;56.70;;;;;;5078956;28;19915;-66
2022/05/18 11:02:02;;;;;;;;;;;23.10;56.60;;;;;;5097856;28;19919;-74
2022/05/18 11:04:33;;;;;;;;;;;23.00;56.40;;;;;;5095138;28;19992;-75
2022/05/18 11:06:59;;;;;;;;;;;23.00;56.30;;;;;;5094503;28;19923;-75
2022/05/18 11:09:29;;;;;;;;;;;22.90;56.00;;;;;;5096586;28;19908;-75
2022/05/18 11:12:00;;;;;;;;;;;22.90;55.90;;;;;;5078799;28;19979;-76
2022/05/18 11:14:44;;;;;;;;;;;23.00;56.00;;;;;;5098481;28;19922;-74
2022/05/18 11:17:16;;;;;;;;;;;23.20;55.80;;;;;;5102342;28;19946;-73
2022/05/18 11:19:59;;;;;;;;;;;23.20;56.00;;;;;;5100635;28;19919;-73
2022/05/18 11:22:28;;;;;;;;;;;23.20;56.70;;;;;;5101543;28;20017;-73
2022/05/18 11:24:59;;;;;;;;;;;23.30;57.20;;;;;;5097480;28;19911;-73
2022/05/18 11:27:25;;;;;;;;;;;23.60;56.30;;;;;;5098663;28;19908;-72
2022/05/18 11:30:00;;;;;;;;;;;23.50;55.70;;;;;;5098027;28;19990;-73
2022/05/18 11:32:46;;;;;;;;;;;23.40;55.20;;;;;;5095995;28;19908;-72
2022/05/18 11:35:32;;;;;;;;;;;23.30;55.10;;;;;;5096522;28;19913;-74
2022/05/18 11:37:57;;;;;;;;;;;23.50;55.80;;;;;;5099760;28;19922;-73
2022/05/18 11:40:37;;;;;;;;;;;23.70;54.90;;;;;;5097722;28;19989;-61
2022/05/18 11:43:28;;;;;;;;;;;23.70;54.10;;;;;;5097878;28;19916;-74
2022/05/18 11:46:12;;;;;;;;;;;23.50;54.00;;;;;;5096837;28;19954;-73
2022/05/18 11:48:40;;;;;;;;;;;23.20;54.10;;;;;;5099235;28;19926;-73
2022/05/18 11:51:26;;;;;;;;;;;23.30;54.50;;;;;;5099543;28;19908;-73
2022/05/18 11:53:52;;;;;;;;;;;23.30;54.50;;;;;;5095976;28;19920;-73
2022/05/18 11:56:23;;;;;;;;;;;23.40;54.30;;;;;;5100041;28;20347;-72
2022/05/18 11:59:29;;;;;;;;;;;23.40;54.20;;;;;;5100841;28;19998;-73
2022/05/18 12:01:48;;;;;;;;;;;23.40;54.00;;;;;;5094552;28;19908;-73
2022/05/18 12:04:16;;;;;;;;;;;23.00;54.00;;;;;;5100259;28;19908;-74
2022/05/18 12:06:42;;;;;;;;;;;22.40;54.50;;;;;;5096870;28;19916;-73
2022/05/18 12:09:27;;;;;;;;;;;21.90;55.00;;;;;;5098452;28;19919;-73
2022/05/18 12:12:02;;;;;;;;;;;21.40;55.90;;;;;;5098937;28;19961;-72
2022/05/18 12:14:27;;;;;;;;;;;20.90;55.90;;;;;;5077848;28;20006;-72
2022/05/18 12:16:53;;;;;;;;;;;20.50;56.50;;;;;;5097550;28;20008;-72
2022/05/18 12:19:39;;;;;;;;;;;19.90;57.70;;;;;;5100288;28;19946;-72
2022/05/18 12:22:08;;;;;;;;;;;19.40;59.10;;;;;;5081156;28;19918;-74
2022/05/18 12:24:35;;;;;;;;;;;19.20;59.40;;;;;;5085110;28;20044;-73
2022/05/18 12:27:01;;;;;;;;;;;19.10;59.80;;;;;;5106398;28;19965;-74
2022/05/18 12:29:27;;;;;;;;;;;19.10;60.00;;;;;;5077085;28;19908;-72
2022/05/18 12:31:55;;;;;;;;;;;19.20;60.00;;;;;;5082602;28;20474;-72
2022/05/18 12:34:39;;;;;;;;;;;19.40;60.30;;;;;;5100977;28;19955;-72
2022/05/18 12:37:13;;;;;;;;;;;19.70;60.50;;;;;;5103430;28;19947;-73
2022/05/18 12:39:39;;;;;;;;;;;19.80;60.20;;;;;;5101833;28;19912;-73
2022/05/18 12:42:08;;;;;;;;;;;19.70;60.20;;;;;;5101706;28;19930;-73
2022/05/18 12:44:40;;;;;;;;;;;19.50;60.40;;;;;;5100286;28;19966;-74
2022/05/18 12:47:25;;;;;;;;;;;19.60;61.00;;;;;;5101253;28;20401;-74
2022/05/18 12:49:55;;;;;;;;;;;19.80;61.20;;;;;;5103194;28;19918;-72
2022/05/18 12:52:30;;;;;;;;;;;20.30;61.30;;;;;;5096417;28;20368;-74
2022/05/18 12:55:00;;;;;;;;;;;20.70;60.90;;;;;;5101781;28;20266;-72
2022/05/18 12:57:40;;;;;;;;;;;21.00;60.70;;;;;;5101119;28;19915;-72
2022/05/18 13:00:09;;;;;;;;;;;21.00;60.70;;;;;;5105169;28;19910;-73
2022/05/18 13:02:43;;;;;;;;;;;21.30;60.10;;;;;;5084508;28;20293;-71
2022/05/18 13:05:31;;;;;;;;;;;21.40;59.80;;;;;;5100614;28;19918;-73
2022/05/18 13:08:19;;;;;;;;;;;21.50;59.50;;;;;;5089442;28;19908;-73
2022/05/18 13:11:04;;;;;;;;;;;21.60;59.40;;;;;;5091126;28;20412;-74
2022/05/18 13:13:33;;;;;;;;;;;21.70;59.30;;;;;;5083890;28;19912;-72
2022/05/18 13:16:00;;;;;;;;;;;21.80;59.60;;;;;;5084359;28;19981;-73
2022/05/18 13:18:33;;;;;;;;;;;21.90;59.30;;;;;;5099840;28;19912;-73
2022/05/18 13:21:08;;;;;;;;;;;21.90;59.50;;;;;;5102887;28;20005;-73
2022/05/18 13:23:42;;;;;;;;;;;21.80;58.90;;;;;;5105211;28;19943;-76
2022/05/18 13:26:12;;;;;;;;;;;21.70;58.10;;;;;;5104654;28;19934;-73
2022/05/18 13:28:39;;;;;;;;;;;21.60;58.30;;;;;;5098964;28;19912;-74
2022/05/18 13:31:05;;;;;;;;;;;21.50;58.30;;;;;;5095333;28;19908;-72
2022/05/18 13:33:49;;;;;;;;;;;21.40;58.50;;;;;;5097795;28;19911;-74
2022/05/18 13:36:28;;;;;;;;;;;21.30;58.90;;;;;;5077004;28;20657;-75
2022/05/18 13:38:54;;;;;;;;;;;21.20;59.10;;;;;;5100913;28;19916;-73
2022/05/18 13:41:19;;;;;;;;;;;21.10;59.00;;;;;;5099314;28;20285;-73
2022/05/18 13:43:45;;;;;;;;;;;21.00;59.30;;;;;;5104531;28;20292;-74
2022/05/18 13:46:21;;;;;;;;;;;21.00;59.80;;;;;;5081505;28;19967;-73
2022/05/18 13:48:54;;;;;;;;;;;21.20;59.70;;;;;;5099140;28;19965;-74
2022/05/18 13:51:19;;;;;;;;;;;21.30;59.10;;;;;;5098858;28;19923;-75
2022/05/18 13:53:46;;;;;;;;;;;21.30;59.20;;;;;;5102095;28;19969;-75
2022/05/18 13:56:20;;;;;;;;;;;21.30;59.10;;;;;;5101001;28;19912;-74
2022/05/18 13:58:47;;;;;;;;;;;21.40;59.60;;;;;;5080942;28;19915;-75
2022/05/18 14:01:18;;;;;;;;;;;21.70;59.70;;;;;;5101115;28;19943;-75
2022/05/18 14:03:44;;;;;;;;;;;21.80;59.10;;;;;;5104832;28;19951;-73
2022/05/18 14:06:12;;;;;;;;;;;21.80;58.60;;;;;;5099235;28;20250;-74
2022/05/18 14:08:40;;;;;;;;;;;21.80;58.80;;;;;;5081779;28;19908;-74
2022/05/18 14:11:10;;;;;;;;;;;21.80;59.00;;;;;;5096201;28;20053;-67
2022/05/18 14:13:36;;;;;;;;;;;21.80;58.50;;;;;;5082597;28;19916;-75
2022/05/18 14:16:02;;;;;;;;;;;21.70;58.50;;;;;;5099159;28;19935;-75
2022/05/18 14:18:39;;;;;;;;;;;21.60;58.40;;;;;;5101048;28;20358;-74
2022/05/18 14:21:10;;;;;;;;;;;21.60;58.40;;;;;;5083708;28;19908;-74
2022/05/18 14:23:40;;;;;;;;;;;21.60;58.80;;;;;;5099830;28;19911;-75
2022/05/18 14:26:07;;;;;;;;;;;21.60;58.50;;;;;;5099063;28;19909;-74
2022/05/18 14:28:42;;;;;;;;;;;21.50;58.60;;;;;;5084314;28;19912;-75
2022/05/18 14:31:08;;;;;;;;;;;21.40;58.70;;;;;;5079207;28;19939;-74
2022/05/18 14:33:37;;;;;;;;;;;21.30;58.70;;;;;;5093457;28;20290;-76
2022/05/18 14:36:05;;;;;;;;;;;21.20;59.00;;;;;;5110577;28;19915;-76
2022/05/18 14:38:32;;;;;;;;;;;20.90;59.20;;;;;;5108871;28;20326;-75
2022/05/18 14:40:59;;;;;;;;;;;20.70;59.60;;;;;;5102544;28;19914;-74